OMRK/RKT METAR and TAF weather

Enter ICAO airport designator
Station Type Date Time Source
OMRK METAR 2024/04/15 10:00 UTC NOAA

OMRK 151000Z 10014KT 9999 FEW040 34/19 Q1010 A2983


Station Type Date Time Source
OMRK Decoded METAR 2024/04/15 10:00 UTC NOAA

Ras Al Khaimah International Airport, United Arab Emirates (OMRK) 25-37N 055-56E 31M
Apr 15, 2024 - 06:00 AM EDT / 2024.04.15 1000 UTC
Wind: from the E (100 degrees) at 16 MPH (14 KT):0
Visibility: greater than 7 mile(s):0
Sky conditions: mostly clear
Temperature: 93 F (34 C)
Heat index: 95.9 F (35.5 C):1
Dew Point: 66 F (19 C)
Relative Humidity: 41%
Pressure (altimeter): 29.83 in. Hg (1010 hPa)
ob: OMRK 151000Z 10014KT 9999 FEW040 34/19 Q1010 A2983
cycle: 10

Station Type Date Time Source
OMRK TAF 2024/04/15 06:12 UTC NOAA